Time;durP1;ratioP1;P1;durP2;ratioP2;P2;SDS_P1;SDS_P2;PMS_P1;PMS_P2;Temp;Humidity;BMP_temperature;BMP_pressure;BME280_temperature;BME280_humidity;BME280_pressure;Samples;Min_cycle;Max_cycle;Signal;HPM_P1;HPM_P2
2023/01/01 00:01:23;;;;;;;1.48;0.77;;;10.90;99.90;;;;;;5064126;28;20469;-87
2023/01/01 00:03:58;;;;;;;0.50;0.50;;;10.70;99.90;;;;;;5060986;28;20024;-86
2023/01/01 00:06:25;;;;;;;1.17;0.57;;;10.70;99.90;;;;;;5062061;28;20029;-86
2023/01/01 00:11:35;;;;;;;1.55;0.90;;;10.80;99.90;;;;;;5064809;28;20613;-87
2023/01/01 00:14:01;;;;;;;0.10;0.10;;;10.70;99.90;;;;;;5067684;28;20021;-86
2023/01/01 00:16:27;;;;;;;0.90;0.68;;;10.40;99.90;;;;;;5067118;28;20028;-86
2023/01/01 00:18:53;;;;;;;0.20;0.20;;;10.50;99.90;;;;;;5065954;28;20024;-86
2023/01/01 00:21:18;;;;;;;0.22;0.22;;;10.60;99.90;;;;;;5056974;28;20032;-86
2023/01/01 00:23:44;;;;;;;0.28;0.28;;;10.80;99.90;;;;;;5062298;28;20027;-86
2023/01/01 00:26:12;;;;;;;2.30;1.25;;;10.70;99.90;;;;;;5066285;28;20062;-86
2023/01/01 00:28:38;;;;;;;0.57;0.57;;;10.60;99.90;;;;;;5065506;28;20033;-86
2023/01/01 00:31:12;;;;;;;0.10;0.10;;;10.70;99.90;;;;;;5065479;28;20042;-86
2023/01/01 00:33:38;;;;;;;0.40;0.40;;;10.60;99.90;;;;;;5062511;28;20087;-86
2023/01/01 00:36:08;;;;;;;1.55;1.02;;;10.50;99.90;;;;;;5066381;28;20047;-86
2023/01/01 00:38:35;;;;;;;0.45;0.45;;;10.70;99.90;;;;;;5059161;28;20044;-86
2023/01/01 00:41:00;;;;;;;0.30;0.30;;;10.70;99.90;;;;;;5063297;28;20028;-86
2023/01/01 00:43:26;;;;;;;2.35;0.65;;;10.90;99.90;;;;;;5064873;28;20054;-86
2023/01/01 00:45:52;;;;;;;0.20;0.20;;;10.90;99.90;;;;;;5060855;28;20032;-86
2023/01/01 00:48:18;;;;;;;0.25;0.25;;;10.80;99.90;;;;;;5066603;28;20676;-86
2023/01/01 00:50:44;;;;;;;0.88;0.85;;;10.80;99.90;;;;;;5057622;28;20528;-86
2023/01/01 00:53:10;;;;;;;1.58;0.52;;;11.00;99.90;;;;;;5061401;28;20123;-85
2023/01/01 00:55:37;;;;;;;0.13;0.13;;;11.10;99.90;;;;;;5068738;28;20056;-86
2023/01/01 00:58:03;;;;;;;0.20;0.20;;;11.10;99.90;;;;;;5065118;28;20028;-87
2023/01/01 01:00:29;;;;;;;0.20;0.20;;;11.30;99.90;;;;;;5066831;28;20058;-86
2023/01/01 01:02:54;;;;;;;0.30;0.30;;;11.30;99.90;;;;;;5064507;28;20033;-86
2023/01/01 01:05:20;;;;;;;0.43;0.35;;;11.00;99.90;;;;;;5061275;28;20037;-86
2023/01/01 01:07:46;;;;;;;0.82;0.80;;;11.10;99.90;;;;;;5055278;28;20052;-86
2023/01/01 01:10:11;;;;;;;0.20;0.20;;;11.00;99.90;;;;;;5062744;28;20031;-86
2023/01/01 01:12:37;;;;;;;0.20;0.20;;;11.00;99.90;;;;;;5066166;28;20043;-86
2023/01/01 01:15:06;;;;;;;0.20;0.20;;;11.00;99.90;;;;;;5057943;28;20029;-86
2023/01/01 01:17:33;;;;;;;0.20;0.20;;;10.90;99.90;;;;;;5053645;28;20049;-86
2023/01/01 01:19:58;;;;;;;0.10;0.10;;;10.80;99.90;;;;;;5066315;28;20016;-86
2023/01/01 01:22:24;;;;;;;0.15;0.15;;;10.80;99.90;;;;;;5057586;28;20028;-86
2023/01/01 01:24:50;;;;;;;0.22;0.22;;;10.90;99.90;;;;;;5058093;28;20027;-86
2023/01/01 01:27:16;;;;;;;0.80;0.80;;;11.10;99.90;;;;;;5063411;28;20431;-86
2023/01/01 01:29:42;;;;;;;2.17;1.40;;;11.00;99.90;;;;;;5064990;28;20027;-86
2023/01/01 01:32:09;;;;;;;0.10;0.10;;;11.10;99.90;;;;;;5062986;28;20870;-86
2023/01/01 01:34:35;;;;;;;6.20;0.60;;;11.10;99.90;;;;;;5063766;28;20025;-86
2023/01/01 01:37:00;;;;;;;0.20;0.20;;;11.00;99.90;;;;;;5059592;28;20024;-86
2023/01/01 01:39:26;;;;;;;0.50;0.50;;;11.00;99.90;;;;;;5062152;28;20036;-86
2023/01/01 01:41:52;;;;;;;0.55;0.32;;;11.20;99.90;;;;;;5064163;28;20028;-86
2023/01/01 01:44:46;;;;;;;0.45;0.32;;;11.30;99.90;;;;;;5057272;28;20047;-85
2023/01/01 01:47:37;;;;;;;0.40;0.40;;;11.30;99.90;;;;;;5059774;28;20058;-87
2023/01/01 01:50:13;;;;;;;0.03;0.03;;;11.40;99.90;;;;;;5062781;28;20032;-88
2023/01/01 01:52:46;;;;;;;0.20;0.20;;;11.20;99.90;;;;;;5063335;28;20035;-88
2023/01/01 01:55:13;;;;;;;0.50;0.50;;;11.40;99.90;;;;;;5055554;28;20029;-88
2023/01/01 01:57:40;;;;;;;0.40;0.40;;;11.50;99.90;;;;;;5060606;28;20667;-87
2023/01/01 02:00:08;;;;;;;0.10;0.10;;;11.40;99.90;;;;;;5058765;28;20784;-88
2023/01/01 02:02:39;;;;;;;1.05;0.85;;;11.30;99.90;;;;;;5060852;28;20029;-85
2023/01/01 02:05:05;;;;;;;0.50;0.43;;;11.10;99.90;;;;;;5056369;28;20081;-85
2023/01/01 02:07:33;;;;;;;0.70;0.70;;;11.00;99.90;;;;;;5054547;28;20053;-86
2023/01/01 02:10:01;;;;;;;0.10;0.10;;;11.20;99.90;;;;;;5061275;28;20143;-88
2023/01/01 02:12:27;;;;;;;0.28;0.28;;;11.20;99.90;;;;;;5048747;28;20029;-86
2023/01/01 02:14:53;;;;;;;0.50;0.50;;;11.30;99.90;;;;;;5065458;28;20044;-93
2023/01/01 02:17:43;;;;;;;0.47;0.47;;;11.10;99.90;;;;;;5065133;28;20033;-89
2023/01/01 02:20:15;;;;;;;0.73;0.32;;;11.10;99.90;;;;;;5059286;28;20048;-88
2023/01/01 02:23:11;;;;;;;1.45;1.13;;;11.10;99.90;;;;;;5060425;28;20036;-90
2023/01/01 02:26:09;;;;;;;0.13;0.13;;;11.00;99.90;;;;;;5051468;28;20031;-86
2023/01/01 02:29:03;;;;;;;0.17;0.17;;;11.10;99.90;;;;;;5063125;28;20114;-87
2023/01/01 02:31:39;;;;;;;0.10;0.10;;;11.10;99.90;;;;;;5084254;28;20059;-87
2023/01/01 02:34:10;;;;;;;1.10;0.65;;;11.10;99.90;;;;;;5068178;28;20063;-87
2023/01/01 02:36:42;;;;;;;0.40;0.40;;;11.10;99.90;;;;;;5061674;28;20021;-86
2023/01/01 02:39:11;;;;;;;0.10;0.10;;;11.30;99.90;;;;;;5059197;28;20024;-86
2023/01/01 02:41:44;;;;;;;0.73;0.57;;;11.10;99.90;;;;;;5065198;28;20033;-86
2023/01/01 02:44:12;;;;;;;0.43;0.43;;;11.10;99.90;;;;;;5057289;28;20044;-85
2023/01/01 02:46:38;;;;;;;4.45;0.95;;;11.10;99.90;;;;;;5061016;28;20856;-85
2023/01/01 02:49:04;;;;;;;1.70;0.82;;;11.20;99.90;;;;;;5066066;28;20037;-85
2023/01/01 02:51:42;;;;;;;0.10;0.10;;;11.20;99.90;;;;;;5068862;28;20033;-86
2023/01/01 02:54:16;;;;;;;8.70;1.95;;;11.00;99.90;;;;;;5066946;28;20043;-85
2023/01/01 02:56:46;;;;;;;5.45;3.75;;;11.20;99.90;;;;;;5062206;28;20075;-86
2023/01/01 03:02:24;;;;;;;0.20;0.20;;;11.00;99.90;;;;;;5065842;28;20075;-85
2023/01/01 03:05:21;;;;;;;0.55;0.55;;;10.90;99.90;;;;;;5065645;28;20104;-85
2023/01/01 03:07:58;;;;;;;;;;;10.90;99.90;;;;;;5065915;28;20087;-85
2023/01/01 03:10:45;;;;;;;1.42;1.33;;;11.00;99.90;;;;;;5066866;28;20375;-85
2023/01/01 03:13:27;;;;;;;6.45;1.52;;;10.70;99.90;;;;;;5059997;28;20040;-85
2023/01/01 03:16:20;;;;;;;0.60;0.60;;;10.40;99.90;;;;;;5056451;28;20032;-87
2023/01/01 03:19:09;;;;;;;0.93;0.90;;;10.30;99.90;;;;;;5057439;28;20367;-87
2023/01/01 03:22:00;;;;;;;0.40;0.40;;;10.30;99.90;;;;;;5062890;28;20025;-87
2023/01/01 03:24:29;;;;;;;0.20;0.20;;;10.70;99.90;;;;;;5062520;28;20131;-87
2023/01/01 03:27:01;;;;;;;0.50;0.50;;;11.10;99.90;;;;;;5068599;28;20024;-87
2023/01/01 03:29:30;;;;;;;2.65;0.43;;;11.10;99.90;;;;;;5059263;28;20036;-86
2023/01/01 03:31:59;;;;;;;0.28;0.28;;;11.00;99.90;;;;;;5055570;28;20062;-86
2023/01/01 03:34:34;;;;;;;0.80;0.77;;;11.00;99.90;;;;;;5062454;28;20032;-85
2023/01/01 03:37:05;;;;;;;0.85;0.85;;;10.90;99.90;;;;;;5062181;28;20025;-85
2023/01/01 03:39:39;;;;;;;0.57;0.57;;;10.70;99.90;;;;;;5065627;28;20044;-85
2023/01/01 03:42:11;;;;;;;0.75;0.75;;;10.60;99.90;;;;;;5065150;28;20090;-85
2023/01/01 03:44:49;;;;;;;19.08;1.27;;;11.00;99.90;;;;;;5065801;28;20475;-84
2023/01/01 03:47:15;;;;;;;0.55;0.55;;;10.60;99.90;;;;;;5058884;28;20124;-89
2023/01/01 03:49:41;;;;;;;0.10;0.10;;;10.50;99.90;;;;;;5066385;28;20085;-89
2023/01/01 03:52:28;;;;;;;1.65;1.45;;;10.50;99.90;;;;;;5065209;28;20290;-89
2023/01/01 03:55:09;;;;;;;1.38;0.93;;;10.40;99.90;;;;;;5063846;28;20033;-87
2023/01/01 03:58:17;;;;;;;0.17;0.17;;;10.50;99.90;;;;;;5066729;28;20105;-90
2023/01/01 04:00:49;;;;;;;1.10;0.73;;;10.40;99.90;;;;;;5066111;28;20033;-90
2023/01/01 04:03:20;;;;;;;12.15;0.65;;;10.60;99.90;;;;;;5066279;28;20024;-90
2023/01/01 04:05:46;;;;;;;0.10;0.10;;;10.60;99.90;;;;;;5059448;28;20925;-89
2023/01/01 04:08:13;;;;;;;0.50;0.50;;;10.90;99.90;;;;;;5053280;28;20048;-90
2023/01/01 04:10:43;;;;;;;1.23;0.88;;;11.00;99.90;;;;;;5060881;28;20020;-86
2023/01/01 04:13:09;;;;;;;2.25;1.77;;;11.00;99.90;;;;;;5061669;28;20027;-86
2023/01/01 04:15:35;;;;;;;0.20;0.20;;;11.10;99.90;;;;;;5062891;28;20024;-86
2023/01/01 04:18:01;;;;;;;0.10;0.10;;;11.00;99.90;;;;;;5060107;28;20056;-87
2023/01/01 04:20:27;;;;;;;0.20;0.20;;;11.10;99.90;;;;;;5063161;28;20052;-87
2023/01/01 04:22:57;;;;;;;2.45;1.55;;;11.10;99.90;;;;;;5064008;28;20033;-87
2023/01/01 04:25:22;;;;;;;0.20;0.20;;;11.20;99.90;;;;;;5064235;28;20029;-86
2023/01/01 04:27:48;;;;;;;0.10;0.10;;;11.10;99.90;;;;;;5062085;28;20615;-86
2023/01/01 04:30:14;;;;;;;0.25;0.25;;;11.20;99.90;;;;;;5063680;28;20504;-87
2023/01/01 04:32:40;;;;;;;0.30;0.30;;;11.10;99.90;;;;;;5059208;28;20745;-87
2023/01/01 04:35:08;;;;;;;0.20;0.20;;;11.10;99.90;;;;;;5064163;28;20036;-87
2023/01/01 04:37:37;;;;;;;0.40;0.40;;;11.10;99.90;;;;;;5050477;28;20033;-87
2023/01/01 04:40:04;;;;;;;1.10;1.02;;;11.00;99.90;;;;;;5059512;28;20475;-87
2023/01/01 04:42:30;;;;;;;0.40;0.40;;;11.10;99.90;;;;;;5062482;28;20035;-87
2023/01/01 04:44:55;;;;;;;0.85;0.55;;;11.10;99.90;;;;;;5061861;28;20028;-87
2023/01/01 04:47:21;;;;;;;0.45;0.43;;;11.10;99.90;;;;;;5062634;28;20377;-85
2023/01/01 04:49:47;;;;;;;0.00;0.00;;;11.00;99.90;;;;;;5061842;28;20028;-85
2023/01/01 04:52:13;;;;;;;0.20;0.20;;;11.00;99.90;;;;;;5064599;28;20404;-86
2023/01/01 04:54:38;;;;;;;0.10;0.10;;;11.00;99.90;;;;;;5063063;28;20029;-86
2023/01/01 04:57:04;;;;;;;0.20;0.20;;;11.00;99.90;;;;;;5060617;28;20110;-86
2023/01/01 04:59:30;;;;;;;1.73;1.23;;;11.00;99.90;;;;;;5054533;28;20025;-88
2023/01/01 05:01:57;;;;;;;0.20;0.20;;;11.00;99.90;;;;;;5066066;28;20147;-88
2023/01/01 05:04:23;;;;;;;0.55;0.50;;;11.10;99.90;;;;;;5067804;28;20119;-88
2023/01/01 05:06:49;;;;;;;0.20;0.20;;;11.00;99.90;;;;;;5057988;28;20111;-87
2023/01/01 05:09:15;;;;;;;0.10;0.10;;;11.20;99.90;;;;;;5059143;28;20522;-86
2023/01/01 05:11:40;;;;;;;0.22;0.22;;;11.20;99.90;;;;;;5066956;28;20510;-85
2023/01/01 05:14:06;;;;;;;0.82;0.60;;;11.10;99.90;;;;;;5066931;28;20553;-86
2023/01/01 05:16:35;;;;;;;0.30;0.30;;;11.30;99.90;;;;;;5061196;28;20100;-86
2023/01/01 05:19:01;;;;;;;0.43;0.43;;;11.20;99.90;;;;;;5064591;28;20021;-88
2023/01/01 05:21:30;;;;;;;0.90;0.88;;;11.20;99.90;;;;;;5062220;28;20036;-87
2023/01/01 05:24:05;;;;;;;0.43;0.43;;;11.10;99.90;;;;;;5065713;28;20843;-85
2023/01/01 05:26:36;;;;;;;0.30;0.30;;;11.20;99.90;;;;;;5054180;28;20091;-85
2023/01/01 05:29:03;;;;;;;0.25;0.22;;;11.30;99.90;;;;;;5066284;28;20036;-85
2023/01/01 05:31:33;;;;;;;0.50;0.50;;;11.40;99.90;;;;;;5062046;28;20024;-85
2023/01/01 05:33:59;;;;;;;2.92;0.38;;;11.40;99.90;;;;;;5067548;28;20605;-85
2023/01/01 05:36:37;;;;;;;0.27;0.27;;;11.30;99.90;;;;;;5062751;28;20071;-85
2023/01/01 05:39:10;;;;;;;1.48;1.38;;;11.10;99.90;;;;;;5053211;28;20028;-86
2023/01/01 05:41:36;;;;;;;0.63;0.63;;;11.00;99.90;;;;;;5063701;28;20039;-86
2023/01/01 05:44:04;;;;;;;4.82;1.20;;;10.80;99.90;;;;;;5065656;28;20111;-85
2023/01/01 05:46:30;;;;;;;0.65;0.65;;;10.80;99.90;;;;;;5061780;28;20041;-86
2023/01/01 05:48:56;;;;;;;0.15;0.15;;;10.70;99.90;;;;;;5058635;28;20032;-84
2023/01/01 05:51:24;;;;;;;0.35;0.35;;;10.50;99.90;;;;;;5062989;28;20119;-83
2023/01/01 05:53:51;;;;;;;0.20;0.20;;;10.50;99.90;;;;;;5064926;28;20025;-83
2023/01/01 05:56:17;;;;;;;1.23;0.90;;;10.50;99.90;;;;;;5064521;28;20032;-83
2023/01/01 05:58:43;;;;;;;2.70;1.10;;;10.40;99.90;;;;;;5063746;28;20035;-84
2023/01/01 06:01:21;;;;;;;3.27;0.60;;;10.40;99.90;;;;;;5064948;28;20037;-84
2023/01/01 06:03:50;;;;;;;0.15;0.15;;;10.80;99.90;;;;;;5061042;28;20072;-86
2023/01/01 06:06:18;;;;;;;4.55;2.17;;;10.70;99.90;;;;;;5058874;28;20710;-86
2023/01/01 06:08:52;;;;;;;0.28;0.28;;;11.00;99.90;;;;;;5063549;28;20834;-86
2023/01/01 06:11:18;;;;;;;0.43;0.30;;;10.80;99.90;;;;;;5060424;28;20039;-86
2023/01/01 06:13:45;;;;;;;0.85;0.50;;;10.80;99.90;;;;;;5064496;28;20032;-84
2023/01/01 06:16:11;;;;;;;0.40;0.40;;;11.00;99.90;;;;;;5055024;28;20036;-85
2023/01/01 06:18:37;;;;;;;0.60;0.60;;;11.00;99.90;;;;;;5068971;28;20595;-85
2023/01/01 06:21:15;;;;;;;2.60;1.50;;;11.00;99.90;;;;;;5069452;28;20435;-84
2023/01/01 06:23:42;;;;;;;0.93;0.75;;;11.00;99.90;;;;;;5066071;28;20147;-83
2023/01/01 06:26:10;;;;;;;0.60;0.60;;;11.30;99.90;;;;;;5065494;28;20047;-85
2023/01/01 06:28:36;;;;;;;1.30;1.20;;;11.10;99.90;;;;;;5065125;28;20040;-84
2023/01/01 06:31:05;;;;;;;0.32;0.32;;;11.20;99.90;;;;;;5065503;28;20036;-85
2023/01/01 06:33:31;;;;;;;2.08;1.27;;;11.10;99.90;;;;;;5064621;28;20671;-84
2023/01/01 06:35:57;;;;;;;0.30;0.30;;;11.10;99.90;;;;;;5062171;28;20037;-83
2023/01/01 06:38:23;;;;;;;0.23;0.23;;;11.30;99.90;;;;;;5064656;28;20116;-82
2023/01/01 06:40:57;;;;;;;0.10;0.10;;;11.10;99.90;;;;;;5059541;28;20115;-84
2023/01/01 06:43:22;;;;;;;0.65;0.65;;;11.00;99.90;;;;;;5067901;28;20092;-84
2023/01/01 06:45:57;;;;;;;2.15;1.25;;;11.10;99.90;;;;;;5066046;28;20701;-84
2023/01/01 06:48:23;;;;;;;0.47;0.47;;;11.00;99.90;;;;;;5066887;28;20062;-84
2023/01/01 06:50:48;;;;;;;0.10;0.10;;;11.10;99.90;;;;;;5064754;28;20806;-84
2023/01/01 06:53:14;;;;;;;8.20;2.10;;;10.70;99.90;;;;;;5060824;28;20033;-85
2023/01/01 06:55:47;;;;;;;0.22;0.22;;;10.60;99.90;;;;;;5064287;28;20048;-83
2023/01/01 06:58:13;;;;;;;3.00;1.40;;;10.60;99.90;;;;;;5064187;28;20036;-83
2023/01/01 07:00:39;;;;;;;0.45;0.45;;;10.70;99.90;;;;;;5064960;28;20107;-83
2023/01/01 07:03:05;;;;;;;1.00;0.47;;;10.70;99.90;;;;;;5068432;28;20119;-83
2023/01/01 07:05:30;;;;;;;0.13;0.13;;;10.60;99.90;;;;;;5054957;28;20503;-83
2023/01/01 07:07:56;;;;;;;0.30;0.30;;;10.40;99.90;;;;;;5060873;28;20086;-82
2023/01/01 07:10:21;;;;;;;0.38;0.38;;;10.50;99.90;;;;;;5048734;28;20065;-83
2023/01/01 07:12:47;;;;;;;1.25;1.15;;;10.50;99.90;;;;;;5060069;28;20032;-83
2023/01/01 07:15:13;;;;;;;5.55;2.20;;;10.40;99.90;;;;;;5064879;28;20017;-83
2023/01/01 07:17:38;;;;;;;0.73;0.73;;;10.40;99.90;;;;;;5068689;28;20495;-84
2023/01/01 07:20:05;;;;;;;0.17;0.17;;;10.50;99.90;;;;;;5061703;28;20433;-86
2023/01/01 07:22:30;;;;;;;1.75;0.70;;;10.40;99.90;;;;;;5068634;28;20021;-85
2023/01/01 07:24:56;;;;;;;0.10;0.10;;;10.40;99.90;;;;;;5060568;28;20017;-86
2023/01/01 07:27:22;;;;;;;1.15;0.85;;;10.40;99.90;;;;;;5058374;28;20060;-85
2023/01/01 07:29:47;;;;;;;0.20;0.20;;;10.40;99.90;;;;;;5062306;28;20566;-85
2023/01/01 07:32:13;;;;;;;1.83;1.35;;;10.80;99.90;;;;;;5063310;28;20427;-85
2023/01/01 07:34:38;;;;;;;0.35;0.35;;;10.80;99.90;;;;;;5056534;28;20130;-86
2023/01/01 07:37:04;;;;;;;0.13;0.13;;;10.80;99.90;;;;;;5067331;28;20025;-85
2023/01/01 07:39:30;;;;;;;0.20;0.20;;;10.80;99.90;;;;;;5067590;28;20060;-85
2023/01/01 07:41:55;;;;;;;1.35;0.80;;;10.90;99.90;;;;;;5064356;28;20043;-89
2023/01/01 07:44:21;;;;;;;0.10;0.10;;;11.10;99.90;;;;;;5058674;28;20043;-86
2023/01/01 07:46:47;;;;;;;0.45;0.45;;;11.20;99.90;;;;;;5062883;28;20024;-84
2023/01/01 07:49:12;;;;;;;0.83;0.80;;;11.20;99.90;;;;;;5067228;28;20036;-85
2023/01/01 07:51:38;;;;;;;0.13;0.13;;;11.50;99.90;;;;;;5067236;28;20547;-83
2023/01/01 07:54:04;;;;;;;4.07;0.30;;;11.60;99.90;;;;;;5062277;28;20025;-84
2023/01/01 07:56:29;;;;;;;0.10;0.10;;;11.90;99.90;;;;;;5067552;28;20078;-85
2023/01/01 07:58:55;;;;;;;0.17;0.17;;;11.80;99.90;;;;;;5065106;28;20036;-86
2023/01/01 08:01:21;;;;;;;0.20;0.20;;;11.90;99.90;;;;;;5060828;28;20032;-88
2023/01/01 08:03:51;;;;;;;0.30;0.30;;;11.80;99.90;;;;;;5067538;28;20064;-88
2023/01/01 08:06:17;;;;;;;3.00;1.15;;;11.80;99.90;;;;;;5064233;28;20782;-89
2023/01/01 08:08:42;;;;;;;0.10;0.10;;;12.00;99.90;;;;;;5059424;28;20139;-89
2023/01/01 08:11:08;;;;;;;3.33;1.50;;;12.10;99.90;;;;;;5054936;28;20083;-88
2023/01/01 08:13:34;;;;;;;3.10;0.57;;;12.20;99.90;;;;;;5064446;28;20055;-86
2023/01/01 08:15:59;;;;;;;0.10;0.10;;;12.20;99.90;;;;;;5067789;28;20402;-91
2023/01/01 08:18:25;;;;;;;5.60;0.47;;;11.90;99.90;;;;;;5059763;28;20040;-86
2023/01/01 08:20:51;;;;;;;0.60;0.23;;;11.90;99.90;;;;;;5062298;28;20453;-87
2023/01/01 08:23:17;;;;;;;0.30;0.30;;;11.90;99.90;;;;;;5053051;28;20119;-88
2023/01/01 08:25:42;;;;;;;0.17;0.17;;;12.20;99.90;;;;;;5063144;28;20024;-88
2023/01/01 08:28:09;;;;;;;0.20;0.20;;;12.10;99.90;;;;;;5063859;28;20555;-89
2023/01/01 08:30:34;;;;;;;2.10;0.85;;;12.20;99.90;;;;;;5061297;28;20032;-90
2023/01/01 08:33:00;;;;;;;1.45;1.02;;;12.30;99.90;;;;;;5063950;28;20029;-91
2023/01/01 08:35:26;;;;;;;1.03;0.87;;;12.40;99.90;;;;;;5069652;28;20715;-88
2023/01/01 08:37:51;;;;;;;0.75;0.50;;;12.30;99.90;;;;;;5084366;28;20028;-89
2023/01/01 08:40:17;;;;;;;0.00;0.00;;;12.50;99.90;;;;;;5065206;28;20028;-91
2023/01/01 08:42:43;;;;;;;0.17;0.17;;;12.50;99.90;;;;;;5075560;28;20352;-89
2023/01/01 08:45:09;;;;;;;0.20;0.20;;;12.50;99.90;;;;;;5063556;28;20100;-90
2023/01/01 08:47:34;;;;;;;0.30;0.30;;;12.70;99.90;;;;;;5064041;28;20609;-93
2023/01/01 08:50:00;;;;;;;0.50;0.30;;;12.80;99.90;;;;;;5058869;28;20056;-91
2023/01/01 08:52:26;;;;;;;0.30;0.30;;;13.00;99.90;;;;;;5063675;28;20039;-91
2023/01/01 08:54:51;;;;;;;0.60;0.60;;;13.30;99.90;;;;;;5061382;28;20126;-85
2023/01/01 08:57:17;;;;;;;0.50;0.50;;;13.30;99.90;;;;;;5056422;28;20951;-89
2023/01/01 08:59:43;;;;;;;0.65;0.65;;;13.30;99.90;;;;;;5057460;28;20052;-88
2023/01/01 09:02:10;;;;;;;0.20;0.20;;;13.50;99.90;;;;;;5054148;28;20033;-87
2023/01/01 09:04:36;;;;;;;2.85;1.73;;;13.90;99.90;;;;;;5053639;28;20640;-87
2023/01/01 09:07:01;;;;;;;0.60;0.47;;;14.00;99.90;;;;;;5055155;28;20033;-86
2023/01/01 09:09:27;;;;;;;0.23;0.23;;;14.20;99.90;;;;;;5063242;28;20025;-84
2023/01/01 09:11:57;;;;;;;0.10;0.10;;;14.20;99.90;;;;;;5054620;28;20028;-85
2023/01/01 09:14:24;;;;;;;0.43;0.43;;;14.30;99.90;;;;;;5060456;28;20050;-84
2023/01/01 09:16:49;;;;;;;0.43;0.43;;;14.40;99.90;;;;;;5053434;28;20802;-84
2023/01/01 09:19:15;;;;;;;0.30;0.30;;;14.40;99.90;;;;;;5059857;28;20285;-83
2023/01/01 09:21:41;;;;;;;0.50;0.50;;;14.50;99.90;;;;;;5056047;28;20773;-83
2023/01/01 09:24:07;;;;;;;1.10;0.83;;;14.70;99.90;;;;;;5057967;28;20135;-83
2023/01/01 09:26:32;;;;;;;0.15;0.15;;;15.00;99.90;;;;;;5060069;28;20047;-85
2023/01/01 09:28:58;;;;;;;0.40;0.40;;;15.00;99.90;;;;;;5065241;28;20025;-82
2023/01/01 09:31:24;;;;;;;7.80;1.60;;;15.00;99.90;;;;;;5064792;28;20503;-82
2023/01/01 09:33:50;;;;;;;0.97;0.53;;;14.90;99.90;;;;;;5062803;28;20028;-81
2023/01/01 09:36:32;;;;;;;0.13;0.13;;;14.90;99.90;;;;;;5051956;28;20036;-83
2023/01/01 09:39:01;;;;;;;0.40;0.40;;;14.90;99.90;;;;;;5052330;28;20025;-86
2023/01/01 09:41:30;;;;;;;0.60;0.60;;;14.90;99.90;;;;;;5060801;28;20398;-85
2023/01/01 09:44:07;;;;;;;0.10;0.10;;;15.00;99.90;;;;;;5063629;28;20870;-85
2023/01/01 09:46:35;;;;;;;0.30;0.30;;;15.00;99.90;;;;;;5062391;28;20035;-86
2023/01/01 09:49:12;;;;;;;0.57;0.57;;;14.90;99.90;;;;;;5055692;28;20024;-85
2023/01/01 09:51:39;;;;;;;0.40;0.40;;;15.00;99.70;;;;;;5057081;28;20036;-81
2023/01/01 09:54:14;;;;;;;0.10;0.10;;;15.00;99.60;;;;;;5061342;28;20039;-83
2023/01/01 09:56:43;;;;;;;1.65;0.52;;;15.10;99.90;;;;;;5058129;28;20500;-88
2023/01/01 09:59:12;;;;;;;0.10;0.10;;;15.10;99.90;;;;;;5061596;28;20021;-83
2023/01/01 10:01:51;;;;;;;0.30;0.22;;;15.10;99.40;;;;;;5060273;28;20028;-83
2023/01/01 10:04:35;;;;;;;1.38;0.88;;;15.10;99.60;;;;;;5058677;28;20405;-82
2023/01/01 10:07:07;;;;;;;0.35;0.35;;;15.10;99.30;;;;;;5058935;28;20519;-83
2023/01/01 10:09:58;;;;;;;0.75;0.75;;;15.20;98.80;;;;;;5054618;28;20044;-83
2023/01/01 10:12:39;;;;;;;0.22;0.22;;;15.20;98.90;;;;;;5047231;28;20046;-87
2023/01/01 10:15:15;;;;;;;2.50;0.95;;;15.20;98.80;;;;;;5063376;28;20032;-83
2023/01/01 10:17:47;;;;;;;0.10;0.10;;;15.20;98.50;;;;;;5061219;28;20024;-85
2023/01/01 10:20:24;;;;;;;0.05;0.05;;;15.30;98.50;;;;;;5060684;28;20093;-85
2023/01/01 10:23:28;;;;;;;0.35;0.35;;;15.30;98.80;;;;;;5054541;28;20104;-88
2023/01/01 10:25:56;;;;;;;0.45;0.45;;;15.30;98.20;;;;;;5056393;28;20067;-90
2023/01/01 10:28:45;;;;;;;0.20;0.20;;;15.30;98.20;;;;;;5051798;28;20054;-86
2023/01/01 10:31:34;;;;;;;0.10;0.10;;;15.40;97.80;;;;;;5054866;28;20065;-84
2023/01/01 10:34:13;;;;;;;0.28;0.28;;;15.40;98.20;;;;;;5064770;28;20020;-87
2023/01/01 10:36:39;;;;;;;0.20;0.20;;;15.50;97.50;;;;;;5058931;28;20024;-86
2023/01/01 10:39:05;;;;;;;0.20;0.20;;;15.50;97.90;;;;;;5060391;28;20028;-85
2023/01/01 10:41:30;;;;;;;0.40;0.40;;;15.60;98.10;;;;;;5056869;28;20060;-83
2023/01/01 10:43:56;;;;;;;0.20;0.20;;;15.70;98.00;;;;;;5060112;28;20109;-85
2023/01/01 10:46:24;;;;;;;0.63;0.43;;;15.70;97.30;;;;;;5064909;28;20024;-84
2023/01/01 10:49:10;;;;;;;0.20;0.20;;;15.70;97.30;;;;;;5068257;28;20024;-85
2023/01/01 10:51:42;;;;;;;4.18;1.88;;;15.70;97.50;;;;;;5053942;28;20033;-85
2023/01/01 10:54:31;;;;;;;0.52;0.30;;;15.70;97.60;;;;;;5062767;28;20083;-85
2023/01/01 10:56:57;;;;;;;0.35;0.20;;;15.80;97.40;;;;;;5068223;28;20078;-85
2023/01/01 10:59:38;;;;;;;1.40;1.20;;;16.00;97.40;;;;;;5066538;28;20031;-85
2023/01/01 11:02:19;;;;;;;0.30;0.30;;;16.10;96.90;;;;;;5069619;28;20259;-85
2023/01/01 11:04:46;;;;;;;0.35;0.25;;;16.00;96.80;;;;;;5054417;28;20045;-85
2023/01/01 11:07:19;;;;;;;0.17;0.17;;;16.10;96.30;;;;;;5061224;28;20052;-85
2023/01/01 11:09:48;;;;;;;2.22;1.45;;;16.10;96.70;;;;;;5063481;28;20033;-85
2023/01/01 11:12:23;;;;;;;0.55;0.40;;;16.10;96.90;;;;;;5060553;28;20067;-85
2023/01/01 11:14:53;;;;;;;10.32;0.70;;;16.10;96.00;;;;;;5056586;28;20029;-85
2023/01/01 11:17:25;;;;;;;0.52;0.22;;;16.00;95.70;;;;;;5063623;28;20028;-85
2023/01/01 11:19:52;;;;;;;5.75;2.35;;;16.10;95.60;;;;;;5060243;28;20028;-86
2023/01/01 11:22:38;;;;;;;;;;;16.20;95.80;;;;;;5058464;28;20028;-87
2023/01/01 11:25:28;;;;;;;0.15;0.15;;;16.10;95.10;;;;;;5059037;28;19954;-83
2023/01/01 11:28:15;;;;;;;1.00;0.80;;;16.00;95.90;;;;;;5065734;28;20089;-82
2023/01/01 11:30:57;;;;;;;1.45;0.95;;;15.90;96.00;;;;;;5057687;28;20032;-87
2023/01/01 11:33:23;;;;;;;0.40;0.40;;;15.90;96.10;;;;;;5062801;28;20033;-85
2023/01/01 11:35:52;;;;;;;0.43;0.43;;;16.00;96.20;;;;;;5058022;28;20546;-84
2023/01/01 11:38:19;;;;;;;0.40;0.28;;;16.00;95.80;;;;;;5059004;28;20086;-83
2023/01/01 11:40:47;;;;;;;0.63;0.43;;;16.00;95.60;;;;;;5054852;28;20028;-87
2023/01/01 11:43:22;;;;;;;0.40;0.20;;;16.00;95.50;;;;;;5059106;28;20039;-83
2023/01/01 11:45:49;;;;;;;0.28;0.20;;;16.00;95.10;;;;;;5065189;28;20028;-86
2023/01/01 11:48:28;;;;;;;0.70;0.70;;;16.10;95.00;;;;;;5056481;28;20032;-86
2023/01/01 11:51:00;;;;;;;0.57;0.57;;;16.10;95.10;;;;;;5061164;28;20105;-85
2023/01/01 11:53:32;;;;;;;0.22;0.22;;;16.10;95.50;;;;;;5058672;28;20346;-84
2023/01/01 11:56:15;;;;;;;1.00;0.38;;;16.20;95.10;;;;;;5056181;28;20031;-85
2023/01/01 11:59:01;;;;;;;6.95;1.42;;;16.30;95.10;;;;;;5051726;28;20043;-87
2023/01/01 12:01:30;;;;;;;0.63;0.63;;;16.20;95.30;;;;;;5059097;28;20588;-84
2023/01/01 12:04:01;;;;;;;1.05;0.95;;;16.10;95.70;;;;;;5057852;28;20028;-85
2023/01/01 12:06:37;;;;;;;1.70;1.30;;;16.00;95.40;;;;;;5058171;28;21167;-85
2023/01/01 12:09:44;;;;;;;0.00;0.00;;;16.00;95.50;;;;;;5057116;28;20053;-88
2023/01/01 12:12:25;;;;;;;0.52;0.52;;;16.10;96.10;;;;;;5046728;28;20127;-84
2023/01/01 12:15:06;;;;;;;1.73;0.63;;;16.10;95.90;;;;;;5062089;28;20036;-84
2023/01/01 12:17:42;;;;;;;0.77;0.75;;;16.20;95.70;;;;;;5060612;28;20514;-84
2023/01/01 12:20:37;;;;;;;0.88;0.88;;;16.30;95.20;;;;;;5059621;28;20102;-87
2023/01/01 12:23:03;;;;;;;0.43;0.30;;;16.30;95.00;;;;;;5056450;28;20128;-87
2023/01/01 12:25:39;;;;;;;0.20;0.20;;;16.40;95.00;;;;;;5063255;28;20124;-84
2023/01/01 12:28:19;;;;;;;;;;;16.50;95.10;;;;;;5047419;28;20028;-86
2023/01/01 12:30:55;;;;;;;0.22;0.22;;;16.50;94.80;;;;;;5057943;28;19980;-86
2023/01/01 12:33:38;;;;;;;0.25;0.25;;;16.50;95.00;;;;;;5052669;28;20725;-89
2023/01/01 12:36:28;;;;;;;0.30;0.20;;;16.60;95.00;;;;;;5062669;28;20070;-91
2023/01/01 12:39:06;;;;;;;0.20;0.20;;;16.50;95.20;;;;;;5054712;28;20029;-90
2023/01/01 12:41:56;;;;;;;0.70;0.57;;;16.40;94.80;;;;;;5069486;28;20020;-91
2023/01/01 12:44:42;;;;;;;0.55;0.55;;;16.30;94.70;;;;;;5062811;28;20119;-90
2023/01/01 12:47:30;;;;;;;12.40;1.77;;;16.10;95.30;;;;;;5059599;28;20420;-89
2023/01/01 12:50:07;;;;;;;1.45;0.88;;;16.00;95.60;;;;;;5060418;28;20220;-91
2023/01/01 12:52:38;;;;;;;;;;;15.90;95.80;;;;;;5066112;28;20035;-89
2023/01/01 12:55:33;;;;;;;0.55;0.40;;;16.00;95.60;;;;;;5062411;28;19935;-91
2023/01/01 12:58:25;;;;;;;0.32;0.32;;;15.90;96.20;;;;;;5052280;28;20053;-90
2023/01/01 13:01:13;;;;;;;0.30;0.30;;;16.10;95.60;;;;;;5061954;28;20028;-89
2023/01/01 13:03:52;;;;;;;0.25;0.25;;;16.30;95.00;;;;;;5057167;28;20032;-89
2023/01/01 13:06:24;;;;;;;0.30;0.25;;;16.40;94.90;;;;;;5066491;28;20040;-89
2023/01/01 13:08:55;;;;;;;1.65;0.40;;;16.50;95.20;;;;;;5056951;28;20052;-89
2023/01/01 13:11:25;;;;;;;0.85;0.85;;;16.40;95.30;;;;;;5054335;28;20037;-90
2023/01/01 13:13:51;;;;;;;2.95;1.63;;;16.50;95.80;;;;;;5066446;28;20403;-89